createdAt,value
2022-12-23T00:00:44.414Z,86.17
2022-12-23T00:03:33.760Z,86.04
2022-12-23T00:06:17.446Z,85.95
2022-12-23T00:08:58.838Z,85.81
2022-12-23T00:11:35.735Z,85.60
2022-12-23T00:14:29.996Z,85.41
2022-12-23T00:17:12.975Z,85.31
2022-12-23T00:19:56.724Z,85.22
2022-12-23T00:22:50.509Z,85.19
2022-12-23T00:28:35.025Z,85.16
2022-12-23T00:31:13.404Z,85.16
2022-12-23T00:33:53.511Z,85.15
2022-12-23T00:36:32.199Z,85.14
2022-12-23T00:39:28.776Z,85.20
2022-12-23T00:42:22.709Z,85.28
2022-12-23T00:45:15.801Z,85.36
2022-12-23T00:48:10.523Z,85.45
2022-12-23T00:50:46.804Z,85.49
2022-12-23T00:53:23.415Z,85.53
2022-12-23T00:55:59.637Z,85.60
2022-12-23T00:58:35.838Z,85.71
2022-12-23T01:01:30.341Z,85.80
2022-12-23T01:04:24.719Z,85.89
2022-12-23T01:07:01.303Z,85.98
2022-12-23T01:09:37.666Z,86.09
2022-12-23T01:12:14.504Z,86.18
2022-12-23T01:14:51.078Z,86.25
2022-12-23T01:17:28.040Z,86.23
2022-12-23T01:20:04.733Z,86.36
2022-12-23T01:22:41.100Z,86.49
2022-12-23T01:25:18.131Z,86.61
2022-12-23T01:27:54.381Z,86.58
2022-12-23T01:30:30.716Z,86.67
2022-12-23T01:33:07.124Z,86.79
2022-12-23T01:35:43.319Z,86.83
2022-12-23T01:38:19.761Z,86.97
2022-12-23T01:40:56.071Z,87.11
2022-12-23T01:43:53.384Z,87.17
2022-12-23T01:46:29.691Z,87.27
2022-12-23T01:49:06.455Z,87.49
2022-12-23T01:51:43.018Z,87.53
2022-12-23T01:54:19.713Z,87.76
2022-12-23T01:56:56.399Z,87.88
2022-12-23T01:59:50.343Z,87.96
2022-12-23T02:02:45.536Z,88.21
2022-12-23T02:05:22.602Z,88.15
2022-12-23T02:08:17.202Z,88.30
2022-12-23T02:11:30.331Z,88.40
2022-12-23T02:14:46.191Z,88.41
2022-12-23T02:17:31.851Z,88.46
2022-12-23T02:21:00.189Z,88.55
2022-12-23T02:24:49.884Z,88.66
2022-12-23T02:27:45.354Z,88.76
2022-12-23T02:30:47.258Z,88.89
2022-12-23T02:33:55.612Z,89.01
2022-12-23T02:36:52.627Z,89.13
2022-12-23T02:39:42.464Z,89.20
2022-12-23T02:42:24.876Z,89.30
2022-12-23T02:45:09.321Z,89.41
2022-12-23T02:47:51.959Z,89.51
2022-12-23T02:50:37.802Z,89.57
2022-12-23T02:53:29.042Z,89.63
2022-12-23T02:56:10.630Z,89.67
2022-12-23T02:58:54.553Z,89.74
2022-12-23T03:01:34.725Z,89.73
2022-12-23T03:04:11.731Z,89.74
2022-12-23T03:06:53.546Z,89.75
2022-12-23T03:09:42.144Z,89.77
2022-12-23T03:12:42.169Z,89.78
2022-12-23T03:15:40.300Z,89.72
2022-12-23T03:18:31.023Z,89.79
2022-12-23T03:21:18.808Z,89.83
2022-12-23T03:24:07.483Z,89.88
2022-12-23T03:26:55.295Z,89.95
2022-12-23T03:29:42.628Z,89.96
2022-12-23T03:32:23.564Z,89.98
2022-12-23T03:35:03.589Z,89.98
2022-12-23T03:37:46.000Z,89.94
2022-12-23T03:40:27.780Z,89.94
2022-12-23T03:43:10.534Z,89.98
2022-12-23T03:45:55.259Z,90.03
2022-12-23T03:48:41.150Z,90.12
2022-12-23T03:51:24.433Z,90.20
2022-12-23T03:54:08.917Z,90.29
2022-12-23T03:56:52.595Z,90.36
2022-12-23T03:59:33.408Z,90.45
2022-12-23T04:02:21.617Z,90.52
2022-12-23T04:05:26.372Z,90.61
2022-12-23T04:08:13.648Z,90.67
2022-12-23T04:10:50.755Z,90.70
2022-12-23T04:13:29.177Z,90.78
2022-12-23T04:16:07.215Z,90.99
2022-12-23T04:18:43.582Z,90.98
2022-12-23T04:21:19.993Z,90.96
2022-12-23T04:23:56.151Z,90.96
2022-12-23T04:26:32.475Z,90.91
2022-12-23T04:29:08.740Z,90.93
2022-12-23T04:31:45.291Z,90.94
2022-12-23T04:34:21.936Z,90.94
2022-12-23T04:36:58.354Z,90.95
2022-12-23T04:39:34.616Z,90.96
2022-12-23T04:42:11.307Z,90.97
2022-12-23T04:44:47.539Z,90.96
2022-12-23T04:47:24.022Z,90.96
2022-12-23T04:50:00.218Z,90.95
2022-12-23T04:52:36.512Z,90.95
2022-12-23T04:55:14.687Z,90.96
2022-12-23T04:57:50.891Z,90.96
2022-12-23T05:00:28.009Z,90.95
2022-12-23T05:03:04.498Z,90.96
2022-12-23T05:05:46.012Z,90.97
2022-12-23T05:08:22.324Z,90.99
2022-12-23T05:10:58.699Z,91.00
2022-12-23T05:13:35.047Z,91.02
2022-12-23T05:16:12.737Z,91.04
2022-12-23T05:18:49.231Z,91.04
2022-12-23T05:21:25.566Z,91.01
2022-12-23T05:24:02.129Z,90.99
2022-12-23T05:26:38.417Z,90.99
2022-12-23T05:29:14.951Z,90.99
2022-12-23T05:31:51.419Z,90.96
2022-12-23T05:34:28.022Z,90.90
2022-12-23T05:37:04.447Z,90.89
2022-12-23T05:39:40.758Z,90.87
2022-12-23T05:42:19.538Z,90.85
2022-12-23T05:44:55.952Z,90.85
2022-12-23T05:47:32.411Z,90.82
2022-12-23T05:50:11.289Z,90.79
2022-12-23T05:52:47.600Z,90.78
2022-12-23T05:55:24.524Z,90.83
2022-12-23T05:58:00.853Z,90.81
2022-12-23T06:00:37.291Z,90.82
2022-12-23T06:03:14.909Z,90.86
2022-12-23T06:05:54.897Z,90.97
2022-12-23T06:08:31.165Z,91.11
2022-12-23T06:11:10.145Z,91.17
2022-12-23T06:13:46.855Z,91.17
2022-12-23T06:16:23.516Z,91.12
2022-12-23T06:19:01.819Z,91.10
2022-12-23T06:21:38.166Z,91.08
2022-12-23T06:24:15.241Z,91.09
2022-12-23T06:26:56.752Z,91.06
2022-12-23T06:29:31.774Z,91.07
2022-12-23T06:32:09.097Z,91.08
2022-12-23T06:34:45.315Z,91.09
2022-12-23T06:37:21.927Z,91.11
2022-12-23T06:39:58.191Z,91.15
2022-12-23T06:42:34.623Z,91.16
2022-12-23T06:45:14.086Z,91.17
2022-12-23T06:47:50.379Z,91.18
2022-12-23T06:50:26.620Z,91.24
2022-12-23T06:53:03.076Z,91.30
2022-12-23T06:55:39.433Z,91.35
2022-12-23T06:58:15.677Z,91.38
2022-12-23T07:00:51.959Z,91.38
2022-12-23T07:03:28.380Z,91.33
2022-12-23T07:06:05.128Z,91.35
2022-12-23T07:08:41.383Z,91.36
2022-12-23T07:11:17.947Z,91.35
2022-12-23T07:13:55.126Z,91.34
2022-12-23T07:16:31.470Z,91.31
2022-12-23T07:19:07.967Z,91.29
2022-12-23T07:21:44.208Z,91.26
2022-12-23T07:24:20.521Z,91.22
2022-12-23T07:26:56.989Z,91.19
2022-12-23T07:29:33.399Z,91.14
2022-12-23T07:32:10.262Z,91.08
2022-12-23T07:34:46.648Z,91.02
2022-12-23T07:37:23.123Z,90.88
2022-12-23T07:40:02.274Z,90.78
2022-12-23T07:42:45.575Z,90.69
2022-12-23T07:45:23.189Z,90.57
2022-12-23T07:48:03.223Z,90.47
2022-12-23T07:50:39.713Z,90.32
2022-12-23T07:53:16.049Z,90.24
2022-12-23T07:55:56.896Z,90.08
2022-12-23T07:58:33.284Z,90.01
2022-12-23T08:01:12.976Z,89.86
2022-12-23T08:03:49.853Z,89.64
2022-12-23T08:06:26.180Z,89.51
2022-12-23T08:09:02.394Z,89.33
2022-12-23T08:11:38.722Z,89.08
2022-12-23T08:14:15.237Z,88.81
2022-12-23T08:16:52.251Z,88.60
2022-12-23T08:19:28.534Z,88.47
2022-12-23T08:22:04.913Z,88.40
2022-12-23T08:24:41.229Z,88.33
2022-12-23T08:27:17.519Z,88.23
2022-12-23T08:29:53.812Z,88.08
2022-12-23T08:32:35.661Z,87.89
2022-12-23T08:35:11.661Z,87.76
2022-12-23T08:37:48.091Z,87.79
2022-12-23T08:40:24.580Z,87.56
2022-12-23T08:43:01.025Z,87.36
2022-12-23T08:45:41.020Z,87.26
2022-12-23T08:48:18.179Z,87.19
2022-12-23T08:50:54.457Z,87.09
2022-12-23T08:53:31.026Z,86.83
2022-12-23T08:56:12.826Z,86.70
2022-12-23T08:58:51.311Z,86.50
2022-12-23T09:01:31.310Z,86.54
2022-12-23T09:04:10.076Z,86.38
2022-12-23T09:06:48.090Z,86.25
2022-12-23T09:09:24.340Z,86.02
2022-12-23T09:12:00.614Z,85.77
2022-12-23T09:14:36.967Z,85.54
2022-12-23T09:17:13.627Z,85.39
2022-12-23T09:19:52.936Z,85.31
2022-12-23T09:22:29.744Z,85.22
2022-12-23T09:25:07.030Z,85.15
2022-12-23T09:27:43.709Z,85.01
2022-12-23T09:30:20.930Z,84.90
2022-12-23T09:32:57.566Z,84.72
2022-12-23T09:35:34.364Z,84.47
2022-12-23T09:38:10.781Z,84.45
2022-12-23T09:40:47.307Z,84.38
2022-12-23T09:43:35.754Z,84.29
2022-12-23T09:46:20.112Z,84.25
2022-12-23T09:49:12.564Z,84.08
2022-12-23T09:51:54.224Z,84.00
2022-12-23T09:54:36.042Z,83.73
2022-12-23T09:57:29.561Z,83.61
2022-12-23T10:00:15.829Z,83.49
2022-12-23T10:03:21.878Z,83.35
2022-12-23T10:06:17.200Z,83.36
2022-12-23T10:09:01.515Z,83.23
2022-12-23T10:11:44.210Z,83.14
2022-12-23T10:14:28.169Z,83.11
2022-12-23T10:17:15.277Z,82.87
2022-12-23T10:19:54.717Z,82.67
2022-12-23T10:22:39.831Z,82.68
2022-12-23T10:25:29.544Z,82.42
2022-12-23T10:28:06.528Z,82.21
2022-12-23T10:31:10.897Z,82.03
2022-12-23T10:33:55.792Z,81.72
2022-12-23T10:36:47.342Z,82.01
2022-12-23T10:39:39.004Z,81.73
2022-12-23T10:42:31.211Z,81.76
2022-12-23T10:45:42.609Z,81.66
2022-12-23T10:48:43.110Z,81.51
2022-12-23T10:51:26.361Z,81.34
2022-12-23T10:54:10.064Z,81.10
2022-12-23T10:56:47.547Z,81.04
2022-12-23T10:59:34.528Z,80.90
2022-12-23T11:02:37.831Z,80.71
2022-12-23T11:05:26.425Z,80.83
2022-12-23T11:08:03.766Z,80.78
2022-12-23T11:10:41.277Z,80.45
2022-12-23T11:13:35.772Z,80.16
2022-12-23T11:16:29.986Z,80.11
2022-12-23T11:19:19.223Z,79.79
2022-12-23T11:22:02.400Z,79.56
2022-12-23T11:24:43.099Z,79.51
2022-12-23T11:27:20.940Z,79.54
2022-12-23T11:30:01.029Z,79.27
2022-12-23T11:32:37.807Z,79.13
2022-12-23T11:35:31.793Z,78.88
2022-12-23T11:38:15.913Z,78.69
2022-12-23T11:40:52.415Z,78.54
2022-12-23T11:43:30.627Z,78.42
2022-12-23T11:46:34.447Z,78.43
2022-12-23T11:49:20.942Z,78.32
2022-12-23T11:52:18.119Z,78.17
2022-12-23T11:55:00.884Z,78.05
2022-12-23T11:57:48.686Z,77.86
2022-12-23T12:00:30.957Z,77.81
2022-12-23T12:03:08.125Z,77.76
2022-12-23T12:05:54.152Z,78.62
2022-12-23T12:08:37.552Z,79.35
2022-12-23T12:11:23.403Z,78.89
2022-12-23T12:14:04.484Z,78.67
2022-12-23T12:16:59.574Z,84.12
2022-12-23T12:19:43.023Z,86.87
2022-12-23T12:22:33.561Z,81.92
2022-12-23T12:25:23.128Z,77.98
2022-12-23T12:28:05.513Z,75.02
2022-12-23T12:30:49.832Z,72.31
2022-12-23T12:33:39.379Z,72.89
2022-12-23T12:36:34.530Z,71.68
2022-12-23T12:39:18.785Z,67.77
2022-12-23T12:42:05.542Z,65.82
2022-12-23T12:44:58.559Z,65.50
2022-12-23T12:47:53.755Z,65.44
2022-12-23T12:50:41.763Z,62.80
2022-12-23T12:53:23.594Z,63.09
2022-12-23T12:56:06.496Z,61.86
2022-12-23T12:58:46.731Z,61.82
2022-12-23T13:01:44.491Z,57.59
2022-12-23T13:05:33.393Z,55.12
2022-12-23T13:08:41.243Z,55.42
2022-12-23T13:11:28.650Z,56.54
2022-12-23T13:14:24.035Z,57.82
2022-12-23T13:17:16.845Z,58.91
2022-12-23T13:20:04.634Z,59.94
2022-12-23T13:22:42.459Z,60.97
2022-12-23T13:25:29.060Z,65.36
2022-12-23T13:28:32.135Z,71.57
2022-12-23T13:31:23.198Z,71.39
2022-12-23T13:34:11.475Z,67.74
2022-12-23T13:37:03.056Z,64.40
2022-12-23T13:39:58.113Z,65.01
2022-12-23T13:42:43.447Z,62.94
2022-12-23T13:45:22.596Z,61.08
2022-12-23T13:48:23.885Z,57.39
2022-12-23T13:51:13.402Z,55.80
2022-12-23T13:54:05.423Z,56.35
2022-12-23T13:56:47.514Z,57.24
2022-12-23T13:59:24.549Z,57.11
2022-12-23T14:02:00.980Z,58.97
2022-12-23T14:04:57.870Z,60.15
2022-12-23T14:07:37.400Z,61.06
2022-12-23T14:10:25.927Z,64.88
2022-12-23T14:13:10.757Z,68.59
2022-12-23T14:16:33.647Z,68.98
2022-12-23T14:19:52.586Z,70.49
2022-12-23T14:22:56.789Z,71.34
2022-12-23T14:26:05.504Z,71.07
2022-12-23T14:29:27.471Z,69.63
2022-12-23T14:32:04.388Z,68.93
2022-12-23T14:35:00.839Z,68.15
2022-12-23T14:37:45.198Z,67.25
2022-12-23T14:41:38.079Z,66.48
2022-12-23T14:44:45.869Z,66.42
2022-12-23T14:47:40.860Z,66.47
2022-12-23T14:50:56.823Z,65.61
2022-12-23T14:53:35.632Z,64.49
2022-12-23T14:56:43.318Z,65.34
2022-12-23T14:59:38.916Z,64.62
2022-12-23T15:02:33.863Z,64.08
2022-12-23T15:05:12.607Z,64.88
2022-12-23T15:07:51.418Z,65.20
2022-12-23T15:10:30.234Z,65.13
2022-12-23T15:13:07.257Z,65.38
2022-12-23T15:16:01.426Z,65.52
2022-12-23T15:18:38.908Z,66.19
2022-12-23T15:21:17.323Z,68.73
2022-12-23T15:23:57.079Z,72.73
2022-12-23T15:26:36.730Z,72.24
2022-12-23T15:29:17.209Z,72.08
2022-12-23T15:31:59.767Z,72.12
2022-12-23T15:34:38.312Z,72.06
2022-12-23T15:37:25.877Z,70.79
2022-12-23T15:40:12.742Z,69.99
2022-12-23T15:42:54.254Z,69.81
2022-12-23T15:45:43.718Z,70.02
2022-12-23T15:48:35.785Z,70.82
2022-12-23T15:51:50.144Z,70.39
2022-12-23T15:54:32.353Z,71.40
2022-12-23T15:57:09.301Z,72.04
2022-12-23T15:59:45.633Z,72.37
2022-12-23T16:05:36.800Z,71.94
2022-12-23T16:08:30.208Z,72.45
2022-12-23T16:11:19.899Z,74.47
2022-12-23T16:14:21.147Z,74.09
2022-12-23T16:17:01.687Z,73.50
2022-12-23T16:19:50.158Z,73.64
2022-12-23T16:22:38.984Z,75.47
2022-12-23T16:25:25.837Z,77.49
2022-12-23T16:28:08.890Z,77.73
2022-12-23T16:30:49.587Z,76.83
2022-12-23T16:33:38.606Z,76.07
2022-12-23T16:36:36.988Z,76.02
2022-12-23T16:39:24.422Z,75.47
2022-12-23T16:42:00.757Z,80.11
2022-12-23T16:44:37.547Z,76.03
2022-12-23T16:47:20.224Z,73.59
2022-12-23T16:49:56.566Z,71.85
2022-12-23T16:52:33.180Z,68.97
2022-12-23T16:55:19.304Z,65.63
2022-12-23T16:57:55.539Z,63.68
2022-12-23T17:00:32.276Z,62.40
2022-12-23T17:03:09.254Z,65.19
2022-12-23T17:05:46.179Z,65.06
2022-12-23T17:08:22.536Z,62.98
2022-12-23T17:11:00.483Z,62.34
2022-12-23T17:13:36.729Z,60.60
2022-12-23T17:16:21.393Z,60.68
2022-12-23T17:18:58.788Z,61.96
2022-12-23T17:21:39.850Z,60.25
2022-12-23T17:24:23.370Z,56.71
2022-12-23T17:27:00.188Z,54.68
2022-12-23T17:29:36.500Z,55.56
2022-12-23T17:32:15.526Z,57.16
2022-12-23T17:34:52.084Z,58.56
2022-12-23T17:37:31.347Z,59.61
2022-12-23T17:40:12.055Z,60.81
2022-12-23T17:42:49.213Z,65.55
2022-12-23T17:45:32.074Z,72.84
2022-12-23T17:48:13.552Z,72.44
2022-12-23T17:50:53.100Z,71.87
2022-12-23T17:53:29.522Z,69.13
2022-12-23T17:56:07.118Z,66.26
2022-12-23T17:58:43.839Z,64.22
2022-12-23T18:01:24.906Z,62.10
2022-12-23T18:04:03.122Z,62.03
2022-12-23T18:06:39.602Z,62.00
2022-12-23T18:09:16.917Z,62.12
2022-12-23T18:11:56.722Z,62.34
2022-12-23T18:14:33.499Z,62.50
2022-12-23T18:17:15.875Z,64.97
2022-12-23T18:19:52.857Z,65.90
2022-12-23T18:22:30.782Z,62.56
2022-12-23T18:25:15.028Z,62.13
2022-12-23T18:27:51.797Z,61.76
2022-12-23T18:30:28.181Z,62.72
2022-12-23T18:33:04.775Z,61.95
2022-12-23T18:35:46.061Z,63.05
2022-12-23T18:38:23.126Z,63.64
2022-12-23T18:41:00.675Z,65.14
2022-12-23T18:43:37.367Z,65.37
2022-12-23T18:46:15.246Z,64.97
2022-12-23T18:48:52.922Z,64.82
2022-12-23T18:51:29.929Z,64.91
2022-12-23T18:54:07.402Z,64.03
2022-12-23T18:56:45.855Z,63.19
2022-12-23T18:59:29.816Z,64.16
2022-12-23T19:02:06.982Z,63.65
2022-12-23T19:04:44.160Z,63.34
2022-12-23T19:07:21.144Z,64.44
2022-12-23T19:09:57.820Z,64.11
2022-12-23T19:12:35.880Z,63.02
2022-12-23T19:15:15.066Z,60.90
2022-12-23T19:17:52.344Z,58.83
2022-12-23T19:20:29.393Z,57.08
2022-12-23T19:23:07.670Z,57.60
2022-12-23T19:25:54.879Z,58.41
2022-12-23T19:28:32.639Z,59.40
2022-12-23T19:31:14.462Z,60.51
2022-12-23T19:33:52.729Z,65.39
2022-12-23T19:36:29.575Z,69.00
2022-12-23T19:39:06.729Z,68.74
2022-12-23T19:41:43.430Z,69.08
2022-12-23T19:44:20.261Z,70.74
2022-12-23T19:46:57.916Z,71.26
2022-12-23T19:49:34.818Z,68.17
2022-12-23T19:52:11.610Z,63.99
2022-12-23T19:54:53.183Z,62.18
2022-12-23T19:57:32.319Z,59.53
2022-12-23T20:00:16.148Z,57.82
2022-12-23T20:02:58.453Z,57.81
2022-12-23T20:05:35.639Z,58.80
2022-12-23T20:08:12.510Z,60.02
2022-12-23T20:10:48.877Z,60.83
2022-12-23T20:13:25.952Z,66.40
2022-12-23T20:16:03.019Z,75.12
2022-12-23T20:18:41.196Z,72.18
2022-12-23T20:21:18.977Z,68.65
2022-12-23T20:23:55.763Z,66.86
2022-12-23T20:26:32.583Z,66.15
2022-12-23T20:29:09.475Z,64.41
2022-12-23T20:31:46.381Z,63.16
2022-12-23T20:34:23.629Z,61.00
2022-12-23T20:37:00.697Z,56.22
2022-12-23T20:39:37.190Z,53.04
2022-12-23T20:42:14.212Z,53.61
2022-12-23T20:44:52.002Z,54.78
2022-12-23T20:47:28.524Z,55.82
2022-12-23T20:50:05.138Z,56.99
2022-12-23T20:52:44.140Z,57.84
2022-12-23T20:55:21.323Z,59.07
2022-12-23T20:57:57.732Z,60.28
2022-12-23T21:00:34.673Z,61.46
2022-12-23T21:03:11.254Z,65.34
2022-12-23T21:05:47.913Z,73.86
2022-12-23T21:08:24.278Z,73.15
2022-12-23T21:11:01.489Z,69.44
2022-12-23T21:13:40.604Z,69.17
2022-12-23T21:16:18.121Z,68.66
2022-12-23T21:18:54.592Z,67.16
2022-12-23T21:21:32.703Z,66.91
2022-12-23T21:24:11.447Z,65.49
2022-12-23T21:26:55.648Z,65.11
2022-12-23T21:29:32.912Z,65.27
2022-12-23T21:32:09.504Z,64.72
2022-12-23T21:34:46.163Z,64.27
2022-12-23T21:37:22.932Z,63.67
2022-12-23T21:39:59.395Z,62.83
2022-12-23T21:42:35.769Z,62.25
2022-12-23T21:45:14.596Z,62.02
2022-12-23T21:47:50.963Z,61.56
2022-12-23T21:50:27.426Z,60.06
2022-12-23T21:53:03.788Z,57.89
2022-12-23T21:55:40.126Z,57.93
2022-12-23T21:58:16.526Z,58.53
2022-12-23T22:00:53.126Z,59.86
2022-12-23T22:03:30.572Z,60.84
2022-12-23T22:06:13.969Z,65.86
2022-12-23T22:08:50.719Z,73.40
2022-12-23T22:11:30.848Z,70.43
2022-12-23T22:14:11.761Z,71.00
2022-12-23T22:16:48.384Z,66.86
2022-12-23T22:19:24.755Z,64.21
2022-12-23T22:22:01.108Z,65.21
2022-12-23T22:24:37.372Z,63.90
2022-12-23T22:27:13.738Z,60.89
2022-12-23T22:29:51.080Z,60.51
2022-12-23T22:32:30.895Z,61.32
2022-12-23T22:35:08.365Z,62.14
2022-12-23T22:37:44.729Z,62.07
2022-12-23T22:40:21.408Z,63.07
2022-12-23T22:42:57.764Z,61.34
2022-12-23T22:45:34.122Z,57.90
2022-12-23T22:48:11.741Z,54.86
2022-12-23T22:50:47.995Z,55.23
2022-12-23T22:53:29.466Z,56.70
2022-12-23T22:56:08.352Z,57.91
2022-12-23T22:58:45.119Z,59.04
2022-12-23T23:01:28.805Z,60.12
2022-12-23T23:04:08.090Z,61.11
2022-12-23T23:06:46.078Z,65.22
2022-12-23T23:09:24.544Z,67.30
2022-12-23T23:12:00.855Z,68.60
2022-12-23T23:14:50.999Z,70.79
2022-12-23T23:17:29.866Z,71.06
2022-12-23T23:20:08.041Z,71.18
2022-12-23T23:22:44.716Z,69.47
2022-12-23T23:25:22.998Z,69.59
2022-12-23T23:27:59.377Z,69.11
2022-12-23T23:30:36.289Z,69.45
2022-12-23T23:33:13.634Z,69.93
2022-12-23T23:35:54.111Z,70.05
2022-12-23T23:38:31.391Z,69.78
2022-12-23T23:41:08.618Z,70.27
2022-12-23T23:43:44.841Z,73.40
2022-12-23T23:46:21.568Z,73.62
2022-12-23T23:48:58.034Z,70.52
2022-12-23T23:51:34.362Z,67.43
2022-12-23T23:54:11.152Z,64.88
2022-12-23T23:56:47.903Z,62.71
2022-12-23T23:59:24.164Z,60.08
